Time;durP1;ratioP1;P1;durP2;ratioP2;P2;SDS_P1;SDS_P2;PMS_P1;PMS_P2;Temp;Humidity;BMP_temperature;BMP_pressure;BME280_temperature;BME280_humidity;BME280_pressure;Samples;Min_cycle;Max_cycle;Signal;HPM_P1;HPM_P2
2022/10/01 00:01:05;;;;;;;1.98;1.60;;;;;;;20.94;47.82;100306.75;5011809;28;20025;-69
2022/10/01 00:03:30;;;;;;;1.67;1.50;;;;;;;20.90;47.92;100294.13;4998238;28;20083;-68
2022/10/01 00:06:17;;;;;;;1.77;1.60;;;;;;;20.90;47.84;100281.69;5010216;28;20033;-68
2022/10/01 00:08:47;;;;;;;1.67;1.40;;;;;;;20.90;47.92;100283.53;5013034;28;20566;-68
2022/10/01 00:11:20;;;;;;;2.08;1.88;;;;;;;20.88;47.92;100274.97;5013646;28;20132;-68
2022/10/01 00:13:46;;;;;;;2.65;1.70;;;;;;;20.89;47.84;100258.91;5012708;28;20029;-68
2022/10/01 00:16:15;;;;;;;2.10;1.70;;;;;;;20.89;47.88;100250.97;5011493;28;20426;-68
2022/10/01 00:18:42;;;;;;;3.20;2.10;;;;;;;20.86;47.95;100258.50;5016536;28;20033;-68
2022/10/01 00:21:11;;;;;;;1.48;1.38;;;;;;;20.80;47.93;100239.72;5011922;28;20044;-69
2022/10/01 00:23:37;;;;;;;1.98;1.60;;;;;;;20.84;48.00;100231.41;5012008;28;20442;-69
2022/10/01 00:26:16;;;;;;;1.65;1.55;;;;;;;20.84;48.15;100228.78;5018101;28;20045;-69
2022/10/01 00:28:44;;;;;;;2.00;1.53;;;;;;;20.79;48.09;100227.50;5018162;28;20041;-68
2022/10/01 00:31:10;;;;;;;1.60;1.40;;;;;;;20.77;48.16;100204.91;5019463;28;21072;-68
2022/10/01 00:33:37;;;;;;;2.35;1.33;;;;;;;20.77;47.95;100205.72;5020121;28;20050;-68
2022/10/01 00:36:07;;;;;;;1.45;1.35;;;;;;;20.75;48.11;100205.13;5014033;28;20124;-69
2022/10/01 00:38:33;;;;;;;1.70;1.58;;;;;;;20.73;48.27;100191.28;5018226;28;20037;-68
2022/10/01 00:41:00;;;;;;;1.60;1.50;;;;;;;20.74;48.25;100184.97;5019859;28;20074;-68
2022/10/01 00:43:31;;;;;;;1.80;1.35;;;;;;;20.74;48.21;100177.03;5017736;28;20263;-68
2022/10/01 00:46:08;;;;;;;1.85;1.60;;;;;;;20.73;48.61;100179.88;5017199;28;20115;-68
2022/10/01 00:48:43;;;;;;;3.10;1.92;;;;;;;20.63;48.16;100151.16;5018368;28;20029;-68
2022/10/01 00:51:09;;;;;;;2.25;1.75;;;;;;;20.72;48.21;100168.50;5013399;28;20099;-68
2022/10/01 00:53:37;;;;;;;1.58;1.48;;;;;;;20.72;48.33;100163.19;5015128;28;20503;-68
2022/10/01 00:56:05;;;;;;;1.88;1.45;;;;;;;20.72;48.30;100155.25;5014342;28;20060;-69
2022/10/01 00:58:30;;;;;;;1.60;1.50;;;;;;;20.76;48.20;100161.78;5017761;28;21055;-68
2022/10/01 01:00:56;;;;;;;1.60;1.50;;;;;;;20.70;48.18;100152.00;5012654;28;20037;-68
2022/10/01 01:03:22;;;;;;;2.00;1.58;;;;;;;20.73;48.23;100148.94;5014923;28;20125;-69
2022/10/01 01:05:49;;;;;;;1.95;1.75;;;;;;;20.71;48.28;100144.88;5017439;28;20041;-68
2022/10/01 01:08:15;;;;;;;1.98;1.55;;;;;;;20.70;48.30;100137.97;5013388;28;20053;-69
2022/10/01 01:11:00;;;;;;;1.90;1.70;;;;;;;20.70;48.39;100138.78;5015927;28;22094;-68
2022/10/01 01:13:25;;;;;;;1.70;1.60;;;;;;;20.69;48.27;100131.84;5015526;28;20769;-68
2022/10/01 01:16:17;;;;;;;4.03;1.92;;;;;;;20.72;48.05;100130.63;5016329;28;20037;-69
2022/10/01 01:18:43;;;;;;;1.58;1.48;;;;;;;20.68;48.38;100119.66;5017075;28;20714;-68
2022/10/01 01:21:21;;;;;;;1.80;1.70;;;;;;;20.69;48.40;100109.88;5011821;28;20033;-68
2022/10/01 01:24:20;;;;;;;2.15;1.75;;;;;;;20.70;48.32;100096.44;5020051;28;20041;-69
2022/10/01 01:27:25;;;;;;;1.67;1.58;;;;;;;20.67;48.27;100088.91;5017568;28;20120;-68
2022/10/01 01:29:51;;;;;;;1.77;1.67;;;;;;;20.66;48.39;100082.00;5015636;28;20049;-68
2022/10/01 01:32:40;;;;;;;1.75;1.55;;;;;;;20.58;48.49;100066.31;5014339;28;20045;-69
2022/10/01 01:35:09;;;;;;;1.60;1.50;;;;;;;20.63;48.59;100063.06;5014336;28;21021;-68
2022/10/01 01:37:39;;;;;;;1.48;1.38;;;;;;;20.64;48.36;100052.25;5017973;28;20116;-68
2022/10/01 01:40:10;;;;;;;1.60;1.50;;;;;;;20.62;48.41;100033.13;5013061;28;20498;-68
2022/10/01 01:42:39;;;;;;;1.85;1.65;;;;;;;20.59;48.47;100019.50;5014476;28;20041;-68
2022/10/01 01:45:10;;;;;;;2.45;1.88;;;;;;;20.62;48.47;100016.47;5009383;28;20385;-68
2022/10/01 01:47:38;;;;;;;1.70;1.55;;;;;;;20.63;48.51;100021.53;5012003;28;20684;-68
2022/10/01 01:50:07;;;;;;;2.10;1.70;;;;;;;20.67;48.29;100028.06;5015835;28;20474;-69
2022/10/01 01:52:32;;;;;;;1.50;1.40;;;;;;;20.66;48.28;100018.50;5016076;28;20038;-68
2022/10/01 01:54:58;;;;;;;1.65;1.52;;;;;;;20.61;48.28;100007.72;5012215;28;20077;-68
2022/10/01 01:57:25;;;;;;;1.85;1.70;;;;;;;20.64;48.23;100009.13;5014153;28;20156;-68
2022/10/01 01:59:53;;;;;;;2.10;1.70;;;;;;;20.58;48.61;99991.44;4998847;28;20037;-69
2022/10/01 02:02:28;;;;;;;1.60;1.50;;;;;;;20.60;48.44;100002.63;5016524;28;20033;-68
2022/10/01 02:05:00;;;;;;;2.22;1.65;;;;;;;20.61;48.33;99989.19;5017384;28;20086;-68
2022/10/01 02:07:29;;;;;;;2.22;1.83;;;;;;;20.59;48.46;99990.41;5017109;28;20479;-69
2022/10/01 02:10:25;;;;;;;1.63;1.52;;;;;;;20.63;48.49;99975.75;5016821;28;20515;-68
2022/10/01 02:13:07;;;;;;;1.70;1.60;;;;;;;20.58;48.56;99972.91;5016937;28;20061;-68
2022/10/01 02:16:00;;;;;;;2.05;1.70;;;;;;;20.59;48.47;99972.72;5007131;28;20451;-68
2022/10/01 02:18:55;;;;;;;1.48;1.33;;;;;;;20.58;48.47;99955.22;5013085;28;20045;-68
2022/10/01 02:22:01;;;;;;;1.60;1.50;;;;;;;20.57;48.51;99964.19;5015634;28;20037;-68
2022/10/01 02:24:37;;;;;;;2.55;1.83;;;;;;;20.57;48.50;99966.00;5002430;28;20049;-68
2022/10/01 02:27:07;;;;;;;2.13;1.75;;;;;;;20.50;48.54;99942.22;5016469;28;20176;-68
2022/10/01 02:29:34;;;;;;;1.63;1.52;;;;;;;20.53;48.53;99957.69;5014357;28;20044;-69
2022/10/01 02:32:01;;;;;;;2.03;1.88;;;;;;;20.54;48.52;99961.13;5016932;28;20052;-68
2022/10/01 02:34:29;;;;;;;1.88;1.50;;;;;;;20.50;48.63;99956.25;5014092;28;20052;-68
2022/10/01 02:36:58;;;;;;;1.58;1.38;;;;;;;20.54;48.59;99959.31;5019172;28;20433;-69
2022/10/01 02:39:26;;;;;;;1.52;1.40;;;;;;;20.51;48.51;99935.91;5015476;28;20045;-68
2022/10/01 02:41:54;;;;;;;1.48;1.38;;;;;;;20.52;48.61;99938.34;5001497;28;20045;-68
2022/10/01 02:44:26;;;;;;;1.83;1.52;;;;;;;20.47;48.65;99934.69;5015889;28;20037;-68
2022/10/01 02:47:01;;;;;;;1.70;1.60;;;;;;;20.55;48.52;99925.72;5013637;28;20049;-69
2022/10/01 02:49:29;;;;;;;1.88;1.58;;;;;;;20.47;48.63;99914.34;5012146;28;20033;-68
2022/10/01 02:52:38;;;;;;;1.75;1.50;;;;;;;20.55;48.58;99931.03;5014529;28;20066;-69
2022/10/01 02:55:07;;;;;;;;;;;;;;;20.49;48.63;99916.78;4983004;28;20045;-68
2022/10/01 02:57:34;;;;;;;1.83;1.70;;;;;;;20.49;48.79;99922.91;5013917;28;19917;-68
2022/10/01 03:00:03;;;;;;;1.58;1.48;;;;;;;20.55;48.48;99897.44;5016033;28;20148;-68
2022/10/01 03:02:30;;;;;;;2.03;1.60;;;;;;;20.52;48.57;99885.44;5011875;28;20045;-69
2022/10/01 03:04:56;;;;;;;1.50;1.40;;;;;;;20.45;48.65;99887.28;5014924;28;20647;-68
2022/10/01 03:07:22;;;;;;;1.55;1.40;;;;;;;20.48;48.68;99884.25;5014665;28;20041;-69
2022/10/01 03:09:48;;;;;;;1.27;1.17;;;;;;;20.55;48.48;99891.34;5015207;28;20076;-68
2022/10/01 03:12:15;;;;;;;1.63;1.45;;;;;;;20.51;48.43;99875.09;5011110;28;20041;-69
2022/10/01 03:14:43;;;;;;;1.40;1.30;;;;;;;20.52;48.49;99879.34;4997529;28;21971;-68
2022/10/01 03:17:09;;;;;;;1.80;1.58;;;;;;;20.50;48.54;99878.75;5016566;28;20044;-68
2022/10/01 03:19:34;;;;;;;1.55;1.45;;;;;;;20.55;48.48;99878.94;5015335;28;20049;-68
2022/10/01 03:22:01;;;;;;;1.38;1.30;;;;;;;20.54;48.35;99865.91;5012842;28;20055;-68
2022/10/01 03:24:26;;;;;;;1.65;1.55;;;;;;;20.54;48.37;99865.91;5015068;28;20154;-68
2022/10/01 03:26:54;;;;;;;1.90;1.40;;;;;;;20.51;48.46;99867.97;5007977;28;20041;-68
2022/10/01 03:29:19;;;;;;;1.77;1.67;;;;;;;20.47;48.58;99879.97;5012885;28;20125;-69
2022/10/01 03:31:45;;;;;;;2.08;1.52;;;;;;;20.49;48.58;99867.34;4998132;28;20415;-69
2022/10/01 03:34:12;;;;;;;2.15;1.90;;;;;;;20.51;48.57;99873.25;5012836;28;20403;-68
2022/10/01 03:36:38;;;;;;;1.50;1.40;;;;;;;20.46;48.72;99872.22;5009763;28;20063;-69
2022/10/01 03:39:04;;;;;;;2.05;1.40;;;;;;;20.44;48.66;99858.41;5016484;28;20510;-68
2022/10/01 03:41:30;;;;;;;1.58;1.48;;;;;;;20.47;48.56;99850.06;5015000;28;20055;-68
2022/10/01 03:43:55;;;;;;;1.80;1.30;;;;;;;20.38;48.76;99833.56;5016432;28;20096;-68
2022/10/01 03:46:21;;;;;;;1.80;1.23;;;;;;;20.46;48.77;99851.88;5010739;28;20038;-69
2022/10/01 03:48:48;;;;;;;1.60;1.35;;;;;;;20.45;48.66;99852.91;5014907;28;20396;-68
2022/10/01 03:51:13;;;;;;;1.33;1.23;;;;;;;20.44;48.72;99847.81;5017022;28;20155;-68
2022/10/01 03:53:39;;;;;;;1.42;1.33;;;;;;;20.44;48.72;99843.34;5011813;28;20479;-69
2022/10/01 03:56:05;;;;;;;1.40;1.30;;;;;;;20.44;48.68;99834.59;5016987;28;20037;-69
2022/10/01 03:58:30;;;;;;;1.45;1.35;;;;;;;20.49;48.59;99842.75;5009988;28;20487;-68
2022/10/01 04:00:56;;;;;;;1.85;1.20;;;;;;;20.47;48.69;99845.59;4996881;28;20098;-69
2022/10/01 04:03:22;;;;;;;1.58;1.48;;;;;;;20.45;48.60;99831.75;5009686;28;20063;-68
2022/10/01 04:05:48;;;;;;;1.17;1.08;;;;;;;20.49;48.47;99832.97;5014108;28;20037;-68
2022/10/01 04:08:13;;;;;;;1.35;1.25;;;;;;;20.49;48.62;99816.31;5017163;28;20120;-68
2022/10/01 04:10:40;;;;;;;1.08;1.05;;;;;;;20.47;48.65;99827.09;4995945;28;20681;-69
2022/10/01 04:13:06;;;;;;;1.38;1.27;;;;;;;20.43;48.85;99830.34;5015215;28;20076;-68
2022/10/01 04:15:32;;;;;;;1.75;1.45;;;;;;;20.45;48.60;99821.16;5014553;28;20165;-68
2022/10/01 04:17:58;;;;;;;1.25;1.15;;;;;;;20.44;48.67;99831.97;5013594;28;20046;-68
2022/10/01 04:20:24;;;;;;;1.30;1.15;;;;;;;20.47;48.61;99828.91;4993860;28;20033;-69
2022/10/01 04:22:50;;;;;;;1.83;1.40;;;;;;;20.44;48.63;99821.38;5021109;28;20037;-69
2022/10/01 04:25:16;;;;;;;1.17;1.08;;;;;;;20.45;48.68;99838.88;5017405;28;20057;-68
2022/10/01 04:27:56;;;;;;;1.05;1.05;;;;;;;20.48;48.49;99841.13;5024703;28;20486;-68
2022/10/01 04:30:22;;;;;;;1.25;1.15;;;;;;;20.44;48.64;99831.97;5013062;28;20076;-69
2022/10/01 04:32:48;;;;;;;1.98;1.30;;;;;;;20.42;48.71;99837.44;5020201;28;20615;-69
2022/10/01 04:35:13;;;;;;;0.77;0.77;;;;;;;20.41;48.71;99846.41;5019080;28;20111;-69
2022/10/01 04:37:39;;;;;;;1.45;1.35;;;;;;;20.47;48.56;99832.38;5019917;28;20042;-69
2022/10/01 04:40:05;;;;;;;1.30;1.20;;;;;;;20.45;48.78;99834.38;5021031;28;20052;-69
2022/10/01 04:42:31;;;;;;;0.90;0.90;;;;;;;20.48;48.71;99843.78;5020735;28;20045;-68
2022/10/01 04:44:57;;;;;;;1.52;1.38;;;;;;;20.35;48.61;99826.06;5022264;28;20033;-69
2022/10/01 04:47:23;;;;;;;1.08;0.90;;;;;;;20.46;48.54;99841.31;5016825;28;20049;-68
2022/10/01 04:49:48;;;;;;;1.17;1.10;;;;;;;20.47;48.52;99842.94;5019297;28;20128;-68
2022/10/01 04:52:14;;;;;;;1.40;1.30;;;;;;;20.45;48.67;99831.75;5012325;28;20087;-68
2022/10/01 04:54:39;;;;;;;1.13;1.02;;;;;;;20.44;48.37;99839.88;5011211;28;20081;-69
2022/10/01 04:57:05;;;;;;;1.15;1.13;;;;;;;20.41;48.66;99850.88;5008946;28;20446;-69
2022/10/01 04:59:30;;;;;;;0.95;0.90;;;;;;;20.43;48.68;99846.19;5014668;28;20033;-69
2022/10/01 05:01:56;;;;;;;1.35;1.25;;;;;;;20.38;48.71;99841.50;5008645;28;20484;-68
2022/10/01 05:04:22;;;;;;;1.10;1.00;;;;;;;20.42;48.76;99841.94;5014217;28;20041;-69
2022/10/01 05:06:47;;;;;;;1.08;1.00;;;;;;;20.39;48.87;99845.78;5010019;28;20041;-69
2022/10/01 05:09:13;;;;;;;1.25;1.15;;;;;;;20.42;48.62;99847.22;5016213;28;20546;-69
2022/10/01 05:11:38;;;;;;;1.02;0.90;;;;;;;20.39;48.82;99848.41;5016381;28;20041;-69
2022/10/01 05:14:04;;;;;;;1.10;1.10;;;;;;;20.40;48.92;99849.22;5015964;28;20072;-68
2022/10/01 05:16:29;;;;;;;1.83;1.20;;;;;;;20.34;48.87;99844.78;5013275;28;20057;-69
2022/10/01 05:18:55;;;;;;;1.08;0.90;;;;;;;20.37;48.97;99853.09;5013434;28;20119;-68
2022/10/01 05:21:20;;;;;;;1.35;1.20;;;;;;;20.39;48.76;99835.19;5017151;28;20061;-69
2022/10/01 05:23:46;;;;;;;0.85;0.85;;;;;;;20.40;48.59;99847.41;5015022;28;20029;-69
2022/10/01 05:26:12;;;;;;;0.95;0.85;;;;;;;20.40;48.81;99839.47;5016893;28;20636;-68
2022/10/01 05:28:43;;;;;;;0.90;0.90;;;;;;;20.39;49.01;99850.25;5017807;28;20072;-68
2022/10/01 05:31:09;;;;;;;0.98;0.98;;;;;;;20.39;48.71;99850.25;5020586;28;20294;-68
2022/10/01 05:33:34;;;;;;;0.80;0.80;;;;;;;20.43;48.54;99852.31;5021735;28;20045;-68
2022/10/01 05:36:00;;;;;;;0.90;0.90;;;;;;;20.43;48.64;99857.59;5019437;28;20104;-68
2022/10/01 05:38:26;;;;;;;0.80;0.80;;;;;;;20.39;48.68;99859.00;5020562;28;20021;-68
2022/10/01 05:40:51;;;;;;;1.40;1.20;;;;;;;20.41;48.71;99853.53;5017176;28;20049;-68
2022/10/01 05:43:17;;;;;;;0.90;0.90;;;;;;;20.39;48.64;99856.34;5021429;28;20033;-69
2022/10/01 05:45:43;;;;;;;1.33;0.90;;;;;;;20.43;48.71;99859.41;5016749;28;20057;-69
2022/10/01 05:48:11;;;;;;;1.00;1.00;;;;;;;20.39;48.70;99864.28;5014952;28;20040;-69
2022/10/01 05:50:39;;;;;;;1.27;1.17;;;;;;;20.39;48.90;99866.13;5015429;28;20033;-68
2022/10/01 05:53:07;;;;;;;1.08;0.90;;;;;;;20.37;48.83;99871.63;5018119;28;20576;-68
2022/10/01 05:55:36;;;;;;;1.15;1.05;;;;;;;20.40;48.72;99870.38;5012549;28;20400;-69
2022/10/01 05:58:10;;;;;;;1.08;0.98;;;;;;;20.38;48.85;99864.50;5013180;28;20111;-69
2022/10/01 06:00:37;;;;;;;0.80;0.80;;;;;;;20.38;48.86;99875.06;5016490;28;20041;-69
2022/10/01 06:03:04;;;;;;;0.93;0.90;;;;;;;20.40;48.79;99875.66;5013282;28;20592;-68
2022/10/01 06:05:31;;;;;;;0.90;0.90;;;;;;;20.40;48.75;99868.56;5014783;28;20534;-69
2022/10/01 06:07:57;;;;;;;1.45;1.02;;;;;;;20.38;48.89;99888.28;5017699;28;20056;-69
2022/10/01 06:10:23;;;;;;;1.17;0.90;;;;;;;20.31;48.98;99875.09;4994815;28;20148;-69
2022/10/01 06:12:49;;;;;;;0.82;0.82;;;;;;;20.40;48.79;99889.69;5020277;28;22008;-69
2022/10/01 06:15:16;;;;;;;1.38;1.27;;;;;;;20.39;48.80;99901.31;5018807;28;20076;-69
2022/10/01 06:17:45;;;;;;;0.93;0.90;;;;;;;20.36;48.92;99898.25;5016127;28;20103;-68
2022/10/01 06:20:14;;;;;;;1.15;1.02;;;;;;;20.40;48.70;99888.91;5016013;28;20060;-68
2022/10/01 06:22:41;;;;;;;0.90;0.90;;;;;;;20.41;48.61;99901.13;5019644;28;20045;-68
2022/10/01 06:25:09;;;;;;;0.95;0.95;;;;;;;20.35;48.90;99902.75;5019998;28;20060;-68
2022/10/01 06:27:34;;;;;;;0.70;0.70;;;;;;;20.26;48.78;99879.34;5022055;28;20049;-69
2022/10/01 06:30:00;;;;;;;0.95;0.90;;;;;;;20.40;48.76;99913.50;5014953;28;20049;-68
2022/10/01 06:32:25;;;;;;;0.93;0.93;;;;;;;20.38;48.84;99920.84;5019528;28;20059;-69
2022/10/01 06:34:51;;;;;;;0.70;0.70;;;;;;;20.36;48.97;99914.13;5012686;28;20040;-68
2022/10/01 06:37:16;;;;;;;1.50;0.95;;;;;;;20.40;48.68;99921.44;5000401;28;20037;-68
2022/10/01 06:39:43;;;;;;;1.10;0.90;;;;;;;20.37;48.93;99928.97;5012612;28;20108;-68
2022/10/01 06:42:09;;;;;;;0.80;0.80;;;;;;;20.39;48.86;99934.88;5018286;28;20049;-69
2022/10/01 06:44:35;;;;;;;1.05;1.05;;;;;;;20.41;48.82;99931.03;5013822;28;20045;-69
2022/10/01 06:47:00;;;;;;;0.75;0.75;;;;;;;20.43;48.65;99934.28;5016323;28;20056;-68
2022/10/01 06:49:25;;;;;;;0.70;0.70;;;;;;;20.41;48.89;99932.84;5013262;28;20045;-69
2022/10/01 06:54:35;;;;;;;0.98;0.88;;;;;;;20.44;48.64;99940.38;5014644;28;20045;-69
2022/10/01 06:57:01;;;;;;;0.40;0.40;;;;;;;20.42;48.81;99953.81;5011254;28;20045;-68
2022/10/01 06:59:26;;;;;;;0.60;0.60;;;;;;;20.43;48.58;99944.03;5012666;28;20059;-69
2022/10/01 07:01:52;;;;;;;1.15;1.02;;;;;;;20.48;48.79;99954.84;4996649;28;20040;-69
2022/10/01 07:04:19;;;;;;;0.80;0.80;;;;;;;20.43;48.74;99952.78;5015093;28;20521;-68
2022/10/01 07:06:44;;;;;;;1.17;1.02;;;;;;;20.42;48.69;99950.34;5011519;28;20045;-68
2022/10/01 07:09:10;;;;;;;1.45;0.70;;;;;;;20.42;48.72;99961.75;4995929;28;20045;-69
2022/10/01 07:11:40;;;;;;;0.80;0.70;;;;;;;20.47;48.63;99958.50;5014641;28;20057;-69
2022/10/01 07:14:06;;;;;;;1.13;0.80;;;;;;;20.47;48.62;99967.25;5014443;28;21978;-70
2022/10/01 07:16:31;;;;;;;0.98;0.80;;;;;;;20.49;48.56;99967.03;5013781;28;20073;-70
2022/10/01 07:18:57;;;;;;;1.10;1.00;;;;;;;20.48;48.56;99970.72;5013872;28;20056;-70
2022/10/01 07:21:22;;;;;;;0.70;0.70;;;;;;;20.48;48.72;99983.94;5013060;28;20057;-70
2022/10/01 07:23:48;;;;;;;0.77;0.77;;;;;;;20.43;48.84;99978.41;5016697;28;20037;-69
2022/10/01 07:26:13;;;;;;;1.08;0.98;;;;;;;20.46;48.70;99976.16;5011800;28;20048;-69
2022/10/01 07:28:39;;;;;;;0.70;0.70;;;;;;;20.45;48.21;99974.53;5017590;28;20041;-70
2022/10/01 07:31:10;;;;;;;0.63;0.63;;;;;;;20.56;48.48;99980.25;4991944;28;20045;-71
2022/10/01 07:33:36;;;;;;;1.13;0.98;;;;;;;20.66;48.60;99991.25;5018034;28;20041;-71
2022/10/01 07:36:03;;;;;;;0.98;0.73;;;;;;;20.71;48.31;99991.44;5014583;28;20056;-71
2022/10/01 07:38:29;;;;;;;1.13;0.70;;;;;;;20.70;48.64;99997.75;5016475;28;20041;-71
2022/10/01 07:40:55;;;;;;;1.20;1.10;;;;;;;20.68;48.57;99989.19;5014943;28;20065;-71
2022/10/01 07:43:21;;;;;;;0.80;0.80;;;;;;;20.64;48.47;99993.25;5012866;28;20033;-70
2022/10/01 07:45:48;;;;;;;0.93;0.90;;;;;;;20.69;48.40;99996.13;5016186;28;20064;-70
2022/10/01 07:48:14;;;;;;;1.30;0.98;;;;;;;20.71;48.47;99994.88;5019799;28;20041;-70
2022/10/01 07:50:43;;;;;;;1.15;0.90;;;;;;;20.68;48.45;99999.78;5011888;28;20040;-71
2022/10/01 07:53:10;;;;;;;1.65;0.80;;;;;;;20.68;48.46;100002.44;5015047;28;20637;-69
2022/10/01 07:55:35;;;;;;;4.63;1.20;;;;;;;20.64;48.64;100004.66;5011143;28;20111;-70
2022/10/01 07:58:01;;;;;;;1.08;0.90;;;;;;;20.67;48.65;100006.09;5015561;28;20037;-73
2022/10/01 08:00:28;;;;;;;1.25;0.82;;;;;;;20.77;48.71;100019.72;5013811;28;20601;-70
2022/10/01 08:02:55;;;;;;;2.72;0.85;;;;;;;20.84;48.38;100017.06;5019427;28;20049;-71
2022/10/01 08:05:23;;;;;;;2.40;1.23;;;;;;;20.84;48.49;100017.06;5016818;28;20144;-70
2022/10/01 08:07:49;;;;;;;2.13;1.15;;;;;;;20.85;48.30;100016.06;5018905;28;20037;-70
2022/10/01 08:10:17;;;;;;;0.75;0.65;;;;;;;20.91;48.04;100023.16;5017268;28;20486;-71
2022/10/01 08:12:43;;;;;;;1.05;0.95;;;;;;;20.95;48.14;100017.25;5015520;28;20048;-71
2022/10/01 08:15:14;;;;;;;1.00;0.93;;;;;;;20.98;47.80;100024.75;5018579;28;20037;-71
2022/10/01 08:17:40;;;;;;;1.17;1.00;;;;;;;21.00;48.13;100024.56;5018653;28;20037;-71
2022/10/01 08:20:09;;;;;;;1.25;0.93;;;;;;;20.98;47.87;100030.06;5012270;28;20053;-71
2022/10/01 08:22:34;;;;;;;0.55;0.55;;;;;;;21.05;47.66;100036.16;5024587;28;20051;-69
2022/10/01 08:25:00;;;;;;;1.58;1.10;;;;;;;20.94;48.07;100035.97;5014103;28;20046;-71
2022/10/01 08:27:26;;;;;;;1.35;1.02;;;;;;;21.02;47.94;100043.72;5017189;28;20091;-70
2022/10/01 08:29:52;;;;;;;3.92;1.40;;;;;;;21.06;48.01;100045.72;5013987;28;20053;-70
2022/10/01 08:32:18;;;;;;;1.27;1.10;;;;;;;21.11;47.93;100045.09;5015862;28;20045;-70
2022/10/01 08:34:43;;;;;;;1.02;1.00;;;;;;;21.11;47.88;100040.63;5013887;28;20037;-70
2022/10/01 08:37:09;;;;;;;2.58;1.45;;;;;;;21.12;47.93;100046.72;5014086;28;20045;-70
2022/10/01 08:39:35;;;;;;;2.05;1.00;;;;;;;21.06;47.88;100037.78;5016731;28;20037;-69
2022/10/01 08:42:16;;;;;;;2.38;0.93;;;;;;;21.15;47.72;100048.16;5017732;28;20152;-70
2022/10/01 08:44:44;;;;;;;3.35;1.30;;;;;;;21.15;47.62;100056.09;5013921;28;20038;-70
2022/10/01 08:47:21;;;;;;;1.33;1.05;;;;;;;21.16;47.80;100052.41;5018475;28;20044;-70
2022/10/01 08:49:52;;;;;;;1.52;1.15;;;;;;;21.11;47.70;100053.84;5019160;28;20044;-69
2022/10/01 08:52:32;;;;;;;1.83;1.00;;;;;;;21.15;47.85;100056.09;5001898;28;20037;-71
2022/10/01 08:55:02;;;;;;;2.42;1.23;;;;;;;21.14;47.89;100063.22;5020085;28;20046;-71
2022/10/01 08:57:40;;;;;;;1.55;1.00;;;;;;;21.17;47.77;100069.94;5020147;28;20138;-71
2022/10/01 09:00:13;;;;;;;1.65;0.90;;;;;;;21.22;47.93;100070.16;5007323;28;20451;-71
2022/10/01 09:02:41;;;;;;;2.17;1.15;;;;;;;21.09;48.04;100047.16;5018444;28;20460;-72
2022/10/01 09:05:26;;;;;;;2.17;1.40;;;;;;;21.21;47.81;100071.97;5020862;28;20032;-71
2022/10/01 09:08:05;;;;;;;1.63;0.95;;;;;;;21.23;47.62;100069.13;5013822;28;20132;-71
2022/10/01 09:10:59;;;;;;;1.67;0.90;;;;;;;21.21;47.91;100071.97;5020827;28;20041;-71
2022/10/01 09:13:40;;;;;;;1.63;0.90;;;;;;;21.18;47.83;100072.38;5016148;28;20032;-71
2022/10/01 09:16:34;;;;;;;3.00;1.50;;;;;;;21.25;47.60;100083.00;5017116;28;20045;-71
2022/10/01 09:19:26;;;;;;;1.85;1.02;;;;;;;21.23;47.66;100090.31;4968176;28;20108;-70
2022/10/01 09:21:52;;;;;;;1.63;1.10;;;;;;;21.21;47.69;100106.41;5014717;28;20148;-70
2022/10/01 09:24:43;;;;;;;2.08;1.23;;;;;;;21.21;48.04;100105.59;5017263;28;20060;-70
2022/10/01 09:27:16;;;;;;;3.10;1.15;;;;;;;21.12;48.29;100104.97;5017373;28;20080;-71
2022/10/01 09:29:53;;;;;;;4.97;1.48;;;;;;;21.11;48.22;100096.22;5007393;28;20075;-71
2022/10/01 09:32:23;;;;;;;3.75;1.25;;;;;;;21.07;48.32;100097.66;5013322;28;20125;-71
2022/10/01 09:34:49;;;;;;;1.75;0.93;;;;;;;21.07;48.56;100102.94;5016351;28;20045;-71
2022/10/01 09:37:22;;;;;;;2.15;0.95;;;;;;;21.08;48.51;100106.41;5018433;28;20664;-71
2022/10/01 09:40:11;;;;;;;4.50;1.48;;;;;;;21.13;48.12;100115.34;5016964;28;20045;-71
2022/10/01 09:42:37;;;;;;;5.38;1.50;;;;;;;21.06;48.42;100113.75;5016080;28;20049;-72
2022/10/01 09:45:05;;;;;;;3.22;1.38;;;;;;;21.05;48.45;100112.13;5014845;28;20133;-72
2022/10/01 09:47:31;;;;;;;5.43;1.30;;;;;;;21.13;48.22;100118.00;5015262;28;20037;-72
2022/10/01 09:50:02;;;;;;;4.32;1.65;;;;;;;21.20;48.10;100123.31;5018491;28;20041;-72
2022/10/01 09:52:37;;;;;;;4.93;1.60;;;;;;;21.03;48.55;100117.63;5015042;28;20045;-71
2022/10/01 09:55:18;;;;;;;7.32;2.00;;;;;;;21.15;48.46;100125.75;5015516;28;20033;-71
2022/10/01 09:57:50;;;;;;;9.40;1.60;;;;;;;21.20;48.14;100133.09;5019381;28;20120;-71
2022/10/01 10:00:19;;;;;;;5.88;2.10;;;;;;;21.17;48.30;100131.63;5017313;28;20042;-70
2022/10/01 10:02:47;;;;;;;5.22;2.00;;;;;;;21.22;48.07;100134.50;5015935;28;20695;-71
2022/10/01 10:05:18;;;;;;;7.03;2.78;;;;;;;21.23;48.01;100138.78;5010214;28;20057;-71
2022/10/01 10:07:47;;;;;;;8.80;2.17;;;;;;;21.22;48.39;100134.50;5010972;28;20092;-71
2022/10/01 10:10:20;;;;;;;4.35;1.52;;;;;;;21.21;48.08;100146.13;5017464;28;20041;-71
2022/10/01 10:12:47;;;;;;;8.23;2.10;;;;;;;21.19;48.56;100144.69;5018631;28;20041;-71
2022/10/01 10:15:21;;;;;;;3.40;1.45;;;;;;;21.15;48.65;100146.91;5013414;28;20040;-72
2022/10/01 10:17:50;;;;;;;5.82;1.55;;;;;;;21.19;48.71;100152.66;5018096;28;20052;-71
2022/10/01 10:20:31;;;;;;;9.73;2.30;;;;;;;21.16;48.67;100151.19;5012972;28;21400;-71
2022/10/01 10:23:20;;;;;;;5.35;1.67;;;;;;;21.17;48.44;100152.81;5018263;28;20092;-71
2022/10/01 10:26:00;;;;;;;2.47;1.13;;;;;;;21.16;48.64;100175.03;5019269;28;20827;-71
2022/10/01 10:28:26;;;;;;;;;;;;;;;21.18;48.43;100223.28;5018010;28;20102;-71
2022/10/01 10:30:54;;;;;;;4.13;1.85;;;;;;;21.13;48.53;100245.09;5015439;28;19921;-71
2022/10/01 10:33:21;;;;;;;4.90;1.90;;;;;;;21.09;48.72;100257.09;5017395;28;20544;-71
2022/10/01 10:36:03;;;;;;;6.47;1.50;;;;;;;21.11;48.84;100254.25;5016261;28;20034;-71
2022/10/01 10:38:33;;;;;;;3.60;1.70;;;;;;;21.18;48.14;100239.19;5018720;28;20144;-71
2022/10/01 10:40:59;;;;;;;3.20;1.77;;;;;;;21.13;48.49;100242.44;5017104;28;20487;-71
2022/10/01 10:43:35;;;;;;;5.88;1.52;;;;;;;21.18;47.92;100246.31;5018487;28;20044;-70
2022/10/01 10:46:01;;;;;;;6.03;1.80;;;;;;;21.18;47.90;100244.47;5011315;28;20044;-70
2022/10/01 10:48:31;;;;;;;3.15;1.20;;;;;;;21.21;48.21;100245.94;5018101;28;20839;-70
2022/10/01 10:51:02;;;;;;;5.90;1.70;;;;;;;21.20;48.34;100244.28;5015630;28;20025;-70
2022/10/01 10:53:39;;;;;;;4.18;1.23;;;;;;;21.14;48.32;100245.91;5011568;28;20037;-70
2022/10/01 10:56:14;;;;;;;2.10;1.30;;;;;;;21.08;48.47;100250.19;5014577;28;20037;-70
2022/10/01 10:58:41;;;;;;;1.98;1.20;;;;;;;21.09;48.55;100261.59;5013132;28;20048;-70
2022/10/01 11:01:12;;;;;;;3.70;1.20;;;;;;;21.10;48.41;100253.44;5013135;28;20046;-70
2022/10/01 11:03:45;;;;;;;3.20;1.40;;;;;;;21.17;48.25;100261.38;5015165;28;20056;-71
2022/10/01 11:06:13;;;;;;;5.03;1.60;;;;;;;21.12;48.39;100267.28;5013299;28;20040;-70
2022/10/01 11:08:39;;;;;;;3.97;0.85;;;;;;;21.09;48.08;100273.00;5011866;28;20124;-71
2022/10/01 11:11:53;;;;;;;4.05;1.10;;;;;;;21.12;48.33;100280.53;5011289;28;20049;-71
2022/10/01 11:14:38;;;;;;;3.85;1.48;;;;;;;21.18;48.03;100283.38;5011002;28;20495;-71
2022/10/01 11:17:17;;;;;;;4.28;1.52;;;;;;;21.18;48.22;100286.03;5009634;28;20263;-70
2022/10/01 11:20:26;;;;;;;2.70;1.40;;;;;;;21.16;48.12;100280.13;5014678;28;20033;-70
2022/10/01 11:23:04;;;;;;;1.88;1.13;;;;;;;21.14;48.27;100282.97;4998650;28;20812;-70
2022/10/01 11:25:33;;;;;;;2.28;1.42;;;;;;;21.15;48.14;100286.44;5010086;28;21445;-70
2022/10/01 11:28:08;;;;;;;2.80;1.20;;;;;;;21.14;48.20;100280.31;5011991;28;20037;-70
2022/10/01 11:31:02;;;;;;;3.95;1.50;;;;;;;21.10;48.47;100279.91;5013444;28;20128;-70
2022/10/01 11:34:07;;;;;;;2.88;1.20;;;;;;;21.15;48.31;100297.84;5012164;28;20216;-70
2022/10/01 11:36:43;;;;;;;2.22;1.38;;;;;;;21.15;48.22;100295.19;5012810;28;20033;-71
2022/10/01 11:39:17;;;;;;;3.00;1.55;;;;;;;21.19;48.12;100292.97;5010873;28;20092;-70
2022/10/01 11:42:06;;;;;;;2.33;1.15;;;;;;;21.17;48.16;100297.63;5008849;28;20071;-72
2022/10/01 11:44:43;;;;;;;5.38;2.08;;;;;;;21.14;48.45;100296.19;5006146;28;20544;-71
2022/10/01 11:47:23;;;;;;;5.20;1.88;;;;;;;21.14;48.24;100293.56;5013067;28;21159;-70